Roslyn, Pennsylvania
Current Conditions -  °F | °C
As of 2:54 PM on Sunday 25 Jan 2015 (Local Time) from KPNE Reporting Station
Broken Clouds Broken Clouds  
Wind Chill: 38°   Ceiling: 3900
Heat Index: 44°   Visibility: 10mi
Dew Point: 29°   Wind: 12mph
Humidity: 55%   Direction: 280°W
Pressure: 29.83"   Gusts: NA
Location:  40.1251°N, 75.1282°W
Report Text: KPNE 251954Z AUTO 28010KT 10SM BKN039 07/M02 A2983 RMK AO2 SLP101 T00671017 TSNO
Loading
Personal Weather Stations






























Interactive Weather Map New forecast layout! Learn more

10-Day Weather Forecast

Advertisements
Track Severe Weather on mobile